North Scituate, Massachusetts
Current Conditions -  °F | °C
As of 7:54 PM on Monday 20 Oct 2014 (Local Time) from KBOS Reporting Station
Scattered Clouds Scattered Clouds  
Wind Chill: 53°   Ceiling: Unl
Heat Index: 53°   Visibility: 10mi
Dew Point: 35°   Wind: 9mph
Humidity: 50%   Direction: 220°SW
Pressure: 30"   Gusts: NA
Location:  42.22°N, 70.78°W
Report Text: KBOS 202354Z 22008KT 10SM SCT110 12/02 A3000 RMK AO2 SLP157 T01170017 10144 20117 51008
Loading
Personal Weather Stations






























Interactive Weather Map
Tropical Storm Tracking
New forecast layout! Learn more

10-Day Weather Forecast

Advertisements
Track Severe Weather on mobile